createdAt,value
2023-01-05T00:04:46.479Z,10.63
2023-01-05T00:15:27.604Z,10.68
2023-01-05T00:25:48.954Z,10.68
2023-01-05T00:36:10.813Z,10.54
2023-01-05T00:46:32.212Z,10.53
2023-01-05T00:56:53.614Z,10.49
2023-01-05T01:07:14.999Z,10.49
2023-01-05T01:17:36.697Z,10.43
2023-01-05T01:27:58.147Z,10.39
2023-01-05T01:38:19.514Z,10.45
2023-01-05T01:48:42.869Z,10.47
2023-01-05T01:59:04.251Z,10.53
2023-01-05T02:09:25.767Z,10.55
2023-01-05T02:19:59.494Z,10.47
2023-01-05T02:30:23.871Z,10.50
2023-01-05T02:40:50.124Z,10.51
2023-01-05T02:51:16.354Z,10.51
2023-01-05T03:01:40.411Z,10.64
2023-01-05T03:12:38.829Z,10.61
2023-01-05T03:23:20.876Z,10.66
2023-01-05T03:34:06.792Z,10.67
2023-01-05T03:44:28.147Z,10.65
2023-01-05T03:54:49.504Z,10.62
2023-01-05T04:05:10.855Z,10.55
2023-01-05T04:15:32.229Z,10.61
2023-01-05T04:25:53.623Z,10.44
2023-01-05T04:36:14.970Z,10.35
2023-01-05T04:46:36.448Z,10.26
2023-01-05T04:56:57.901Z,10.32
2023-01-05T05:07:19.307Z,10.34
2023-01-05T05:17:40.813Z,10.34
2023-01-05T05:28:02.197Z,10.27
2023-01-05T05:38:23.607Z,10.25
2023-01-05T05:48:45.002Z,10.27
2023-01-05T05:59:06.404Z,10.39
2023-01-05T06:09:27.776Z,10.32
2023-01-05T06:19:49.243Z,10.31
2023-01-05T06:30:10.880Z,10.25
2023-01-05T06:40:32.235Z,10.22
2023-01-05T06:50:53.620Z,10.22
2023-01-05T07:01:15.044Z,10.10
2023-01-05T07:11:36.545Z,10.03
2023-01-05T07:21:58.075Z,9.96
2023-01-05T07:32:19.517Z,9.91
2023-01-05T07:42:40.998Z,9.77
2023-01-05T07:53:02.373Z,9.68
2023-01-05T08:03:23.925Z,9.56
2023-01-05T08:14:00.497Z,9.48
2023-01-05T08:24:21.846Z,9.37
2023-01-05T08:34:43.218Z,9.33
2023-01-05T08:45:04.804Z,9.22
2023-01-05T08:55:26.174Z,9.29
2023-01-05T09:05:47.594Z,9.29
2023-01-05T09:16:10.288Z,9.31
2023-01-05T09:26:31.678Z,9.24
2023-01-05T09:36:53.031Z,9.23
2023-01-05T09:47:25.403Z,9.22
2023-01-05T09:57:52.768Z,9.19
2023-01-05T10:08:19.475Z,9.14
2023-01-05T10:18:40.988Z,9.11
2023-01-05T10:29:05.366Z,9.09
2023-01-05T10:39:35.884Z,9.28
2023-01-05T10:49:58.519Z,9.55
2023-01-05T11:00:21.326Z,9.79
2023-01-05T11:10:53.948Z,9.83
2023-01-05T11:21:23.191Z,9.97
2023-01-05T11:31:44.557Z,9.96
2023-01-05T11:42:11.346Z,9.89
2023-01-05T11:52:41.213Z,9.90
2023-01-05T12:03:05.673Z,9.95
2023-01-05T12:13:40.679Z,9.86
2023-01-05T12:24:21.057Z,9.75
2023-01-05T12:34:45.471Z,9.74
2023-01-05T12:45:13.016Z,10.04
2023-01-05T12:55:43.532Z,10.35
2023-01-05T13:06:24.111Z,10.33
2023-01-05T13:16:47.108Z,10.26
2023-01-05T13:27:08.816Z,10.24
2023-01-05T13:37:39.249Z,10.31
2023-01-05T13:48:45.085Z,10.27
2023-01-05T13:59:34.640Z,10.22
2023-01-05T14:10:03.161Z,10.14
2023-01-05T14:20:33.799Z,10.18
2023-01-05T14:31:21.990Z,10.13
2023-01-05T14:41:44.002Z,10.05
2023-01-05T14:52:10.300Z,10.01
2023-01-05T15:02:33.758Z,10.00
2023-01-05T15:13:14.032Z,9.94
2023-01-05T15:24:00.323Z,9.86
2023-01-05T15:34:26.426Z,9.81
2023-01-05T15:44:49.248Z,9.76
2023-01-05T15:55:10.578Z,9.80
2023-01-05T16:05:35.204Z,9.83
2023-01-05T16:15:58.940Z,9.81
2023-01-05T16:26:20.920Z,9.85
2023-01-05T16:36:58.217Z,9.86
2023-01-05T16:47:31.677Z,9.87
2023-01-05T16:57:53.110Z,9.76
2023-01-05T17:08:22.003Z,9.72
2023-01-05T17:18:43.367Z,9.73
2023-01-05T17:29:05.513Z,9.72
2023-01-05T17:39:26.931Z,9.68
2023-01-05T17:49:48.447Z,9.67
2023-01-05T18:00:12.230Z,9.68
2023-01-05T18:10:35.557Z,9.73
2023-01-05T18:20:59.251Z,9.74
2023-01-05T18:31:20.649Z,9.78
2023-01-05T18:41:42.002Z,9.81
2023-01-05T18:52:03.439Z,9.82
2023-01-05T19:02:26.013Z,9.77
2023-01-05T19:12:47.522Z,9.77
2023-01-05T19:23:08.919Z,9.70
2023-01-05T19:33:30.350Z,9.72
2023-01-05T19:43:52.404Z,9.72
2023-01-05T19:54:14.380Z,9.71
2023-01-05T20:04:35.804Z,9.66
2023-01-05T20:14:57.542Z,9.67
2023-01-05T20:25:18.912Z,9.62
2023-01-05T20:35:40.902Z,9.66
2023-01-05T20:46:02.307Z,9.73
2023-01-05T20:56:25.170Z,9.82
2023-01-05T21:06:47.324Z,9.93
2023-01-05T21:17:09.044Z,9.95
2023-01-05T21:27:30.403Z,10.08
2023-01-05T21:37:51.787Z,10.06
2023-01-05T21:48:13.197Z,10.04
2023-01-05T21:58:35.524Z,10.01
2023-01-05T22:08:56.950Z,10.03
2023-01-05T22:19:18.367Z,9.96
2023-01-05T22:29:40.336Z,10.02
2023-01-05T22:40:01.844Z,10.07
2023-01-05T22:50:23.205Z,10.12
2023-01-05T23:00:44.569Z,10.16
2023-01-05T23:11:08.181Z,10.19
2023-01-05T23:21:29.679Z,10.23
2023-01-05T23:31:51.316Z,10.21
2023-01-05T23:42:32.693Z,10.25
2023-01-05T23:52:54.048Z,10.30
